sensor_id;sensor_type;location;lat;lon;timestamp;pressure;altitude;pressure_sealevel;temperature;humidity
10688;BME280;5392;42.688;23.298;2022-09-12T00:01:48;57409.25;;;-144.48;100.00
10688;BME280;5392;42.688;23.298;2022-09-12T00:04:15;57384.19;;;-144.48;100.00
10688;BME280;5392;42.688;23.298;2022-09-12T00:06:42;57428.03;;;-144.48;100.00
10688;BME280;5392;42.688;23.298;2022-09-12T00:09:12;57421.78;;;-144.48;100.00
10688;BME280;5392;42.688;23.298;2022-09-12T00:11:41;57382.13;;;-144.48;100.00
10688;BME280;5392;42.688;23.298;2022-09-12T00:14:10;57417.59;;;-144.48;100.00
10688;BME280;5392;42.688;23.298;2022-09-12T00:16:38;57407.16;;;-144.48;100.00
10688;BME280;5392;42.688;23.298;2022-09-12T00:19:06;57398.81;;;-144.48;100.00
10688;BME280;5392;42.688;23.298;2022-09-12T00:21:35;57448.91;;;-144.48;100.00
10688;BME280;5392;42.688;23.298;2022-09-12T00:24:02;57430.13;;;-144.48;100.00
10688;BME280;5392;42.688;23.298;2022-09-12T00:26:29;57451.00;;;-144.48;100.00
10688;BME280;5392;42.688;23.298;2022-09-12T00:28:56;57423.88;;;-144.48;100.00
10688;BME280;5392;42.688;23.298;2022-09-12T00:31:24;57448.91;;;-144.48;100.00
10688;BME280;5392;42.688;23.298;2022-09-12T00:33:53;57407.16;;;-144.48;100.00
10688;BME280;5392;42.688;23.298;2022-09-12T00:36:23;57403.00;;;-144.48;100.00
10688;BME280;5392;42.688;23.298;2022-09-12T00:38:50;57444.72;;;-144.48;100.00
10688;BME280;5392;42.688;23.298;2022-09-12T00:41:35;57446.81;;;-144.48;100.00
10688;BME280;5392;42.688;23.298;2022-09-12T00:46:49;57455.16;;;-144.48;100.00
10688;BME280;5392;42.688;23.298;2022-09-12T00:49:31;57438.47;;;-144.48;100.00
10688;BME280;5392;42.688;23.298;2022-09-12T00:52:25;57407.16;;;-144.48;100.00
10688;BME280;5392;42.688;23.298;2022-09-12T00:55:23;57423.88;;;-144.48;100.00
10688;BME280;5392;42.688;23.298;2022-09-12T00:57:59;57411.34;;;-144.48;100.00
10688;BME280;5392;42.688;23.298;2022-09-12T01:00:28;57394.63;;;-144.48;100.00
10688;BME280;5392;42.688;23.298;2022-09-12T01:03:07;57403.00;;;-144.48;100.00
10688;BME280;5392;42.688;23.298;2022-09-12T01:05:38;57446.81;;;-144.48;100.00
10688;BME280;5392;42.688;23.298;2022-09-12T01:08:06;57421.78;;;-144.48;100.00
10688;BME280;5392;42.688;23.298;2022-09-12T01:10:34;57417.59;;;-144.48;100.00
10688;BME280;5392;42.688;23.298;2022-09-12T01:13:05;57403.00;;;-144.48;100.00
10688;BME280;5392;42.688;23.298;2022-09-12T01:15:32;57430.13;;;-144.48;100.00
10688;BME280;5392;42.688;23.298;2022-09-12T01:26:02;57467.69;;;-144.48;100.00
10688;BME280;5392;42.688;23.298;2022-09-12T01:39:05;57413.44;;;-144.48;100.00
10688;BME280;5392;42.688;23.298;2022-09-12T01:41:50;57425.94;;;-144.48;100.00
10688;BME280;5392;42.688;23.298;2022-09-12T01:44:45;57473.97;;;-144.48;100.00
10688;BME280;5392;42.688;23.298;2022-09-12T01:47:30;57471.88;;;-144.48;100.00
10688;BME280;5392;42.688;23.298;2022-09-12T01:50:16;57459.34;;;-144.48;100.00
10688;BME280;5392;42.688;23.298;2022-09-12T01:52:53;57400.91;;;-144.48;100.00
10688;BME280;5392;42.688;23.298;2022-09-12T01:55:28;57455.16;;;-144.48;100.00
10688;BME280;5392;42.688;23.298;2022-09-12T01:58:16;57419.69;;;-144.48;100.00
10688;BME280;5392;42.688;23.298;2022-09-12T02:00:50;57430.13;;;-144.48;100.00
10688;BME280;5392;42.688;23.298;2022-09-12T02:03:26;57442.66;;;-144.48;100.00
10688;BME280;5392;42.688;23.298;2022-09-12T02:06:04;57419.69;;;-144.48;100.00
10688;BME280;5392;42.688;23.298;2022-09-12T02:08:44;57446.81;;;-144.48;100.00
10688;BME280;5392;42.688;23.298;2022-09-12T02:11:12;57394.63;;;-144.48;100.00
10688;BME280;5392;42.688;23.298;2022-09-12T02:13:43;57446.81;;;-144.48;100.00
10688;BME280;5392;42.688;23.298;2022-09-12T02:18:46;57444.72;;;-144.48;100.00
10688;BME280;5392;42.688;23.298;2022-09-12T02:21:18;57409.25;;;-144.48;100.00
10688;BME280;5392;42.688;23.298;2022-09-12T02:23:49;57457.25;;;-144.48;100.00
10688;BME280;5392;42.688;23.298;2022-09-12T02:26:31;57430.13;;;-144.48;100.00
10688;BME280;5392;42.688;23.298;2022-09-12T02:28:59;57396.72;;;-144.48;100.00
10688;BME280;5392;42.688;23.298;2022-09-12T02:31:40;57421.78;;;-144.48;100.00
10688;BME280;5392;42.688;23.298;2022-09-12T02:36:59;57409.25;;;-144.48;100.00
10688;BME280;5392;42.688;23.298;2022-09-12T02:39:28;57386.28;;;-144.48;100.00
10688;BME280;5392;42.688;23.298;2022-09-12T02:41:57;57400.91;;;-144.48;100.00
10688;BME280;5392;42.688;23.298;2022-09-12T02:44:26;57428.03;;;-144.48;100.00
10688;BME280;5392;42.688;23.298;2022-09-12T02:47:04;57421.78;;;-144.48;100.00
10688;BME280;5392;42.688;23.298;2022-09-12T02:49:32;57459.34;;;-144.48;100.00
10688;BME280;5392;42.688;23.298;2022-09-12T02:52:00;57432.22;;;-144.48;100.00
10688;BME280;5392;42.688;23.298;2022-09-12T02:54:28;57448.91;;;-144.48;100.00
10688;BME280;5392;42.688;23.298;2022-09-12T02:56:55;57461.44;;;-144.48;100.00
10688;BME280;5392;42.688;23.298;2022-09-12T02:59:23;57425.94;;;-144.48;100.00
10688;BME280;5392;42.688;23.298;2022-09-12T03:02:12;57430.13;;;-144.48;100.00
10688;BME280;5392;42.688;23.298;2022-09-12T03:04:51;57423.88;;;-144.48;100.00
10688;BME280;5392;42.688;23.298;2022-09-12T03:24:10;57473.97;;;-144.48;100.00
10688;BME280;5392;42.688;23.298;2022-09-12T03:26:27;57453.09;;;-144.48;100.00
10688;BME280;5392;42.688;23.298;2022-09-12T03:28:57;57440.56;;;-144.48;100.00
10688;BME280;5392;42.688;23.298;2022-09-12T03:31:24;57421.78;;;-144.48;100.00
10688;BME280;5392;42.688;23.298;2022-09-12T03:33:51;57423.88;;;-144.48;100.00
10688;BME280;5392;42.688;23.298;2022-09-12T03:36:26;57448.91;;;-144.48;100.00
10688;BME280;5392;42.688;23.298;2022-09-12T03:38:54;57440.56;;;-144.48;100.00
10688;BME280;5392;42.688;23.298;2022-09-12T03:41:20;57446.81;;;-144.48;100.00
10688;BME280;5392;42.688;23.298;2022-09-12T03:43:47;57455.16;;;-144.48;100.00
10688;BME280;5392;42.688;23.298;2022-09-12T03:46:14;57386.28;;;-144.48;100.00
10688;BME280;5392;42.688;23.298;2022-09-12T03:48:41;57465.59;;;-144.48;100.00
10688;BME280;5392;42.688;23.298;2022-09-12T03:51:26;57444.72;;;-144.48;100.00
10688;BME280;5392;42.688;23.298;2022-09-12T03:53:53;57403.00;;;-144.48;100.00
10688;BME280;5392;42.688;23.298;2022-09-12T03:56:20;57419.69;;;-144.48;100.00
10688;BME280;5392;42.688;23.298;2022-09-12T03:58:46;57421.78;;;-144.48;100.00
10688;BME280;5392;42.688;23.298;2022-09-12T04:01:15;57457.25;;;-144.48;100.00
10688;BME280;5392;42.688;23.298;2022-09-12T04:03:44;57455.16;;;-144.48;100.00
10688;BME280;5392;42.688;23.298;2022-09-12T04:06:14;57430.13;;;-144.48;100.00
10688;BME280;5392;42.688;23.298;2022-09-12T04:08:42;57446.81;;;-144.48;100.00
10688;BME280;5392;42.688;23.298;2022-09-12T04:11:13;57446.81;;;-144.48;100.00
10688;BME280;5392;42.688;23.298;2022-09-12T04:13:42;57484.41;;;-144.48;100.00
10688;BME280;5392;42.688;23.298;2022-09-12T04:16:10;57438.47;;;-144.48;100.00
10688;BME280;5392;42.688;23.298;2022-09-12T04:18:38;57400.91;;;-144.48;100.00
10688;BME280;5392;42.688;23.298;2022-09-12T04:21:08;57451.00;;;-144.48;100.00
10688;BME280;5392;42.688;23.298;2022-09-12T04:23:35;57463.53;;;-144.48;100.00
10688;BME280;5392;42.688;23.298;2022-09-12T04:26:03;57438.47;;;-144.48;100.00
10688;BME280;5392;42.688;23.298;2022-09-12T04:28:32;57425.94;;;-144.48;100.00
10688;BME280;5392;42.688;23.298;2022-09-12T04:31:01;57361.25;;;-144.48;100.00
10688;BME280;5392;42.688;23.298;2022-09-12T04:33:29;57440.56;;;-144.48;100.00
10688;BME280;5392;42.688;23.298;2022-09-12T04:35:56;57396.72;;;-144.48;100.00
10688;BME280;5392;42.688;23.298;2022-09-12T04:38:27;57400.91;;;-144.48;100.00
10688;BME280;5392;42.688;23.298;2022-09-12T04:40:54;57438.47;;;-144.48;100.00
10688;BME280;5392;42.688;23.298;2022-09-12T04:43:22;57423.88;;;-144.48;91.79
10688;BME280;5392;42.688;23.298;2022-09-12T04:45:49;57407.16;;;-144.48;84.12
10688;BME280;5392;42.688;23.298;2022-09-12T04:48:16;57384.19;;;-144.48;76.56
10688;BME280;5392;42.688;23.298;2022-09-12T04:50:43;57384.19;;;-144.48;72.89
10688;BME280;5392;42.688;23.298;2022-09-12T04:53:10;57384.19;;;-144.48;70.51
10688;BME280;5392;42.688;23.298;2022-09-12T04:55:37;57409.25;;;-144.48;67.52
10688;BME280;5392;42.688;23.298;2022-09-12T04:58:03;57342.47;;;-144.48;65.06
10688;BME280;5392;42.688;23.298;2022-09-12T05:00:30;57369.59;;;-144.48;61.20
10688;BME280;5392;42.688;23.298;2022-09-12T05:02:56;57350.81;;;-144.48;57.42
10688;BME280;5392;42.688;23.298;2022-09-12T05:05:23;57363.31;;;-144.48;56.30
10688;BME280;5392;42.688;23.298;2022-09-12T05:07:50;57373.75;;;-144.48;50.72
10688;BME280;5392;42.688;23.298;2022-09-12T05:10:17;57327.84;;;-144.48;51.75
10688;BME280;5392;42.688;23.298;2022-09-12T05:12:43;57361.25;;;-144.48;48.46
10688;BME280;5392;42.688;23.298;2022-09-12T05:15:10;57348.72;;;-144.48;46.07
10688;BME280;5392;42.688;23.298;2022-09-12T05:17:37;57359.16;;;-144.48;44.98
10688;BME280;5392;42.688;23.298;2022-09-12T05:20:04;57380.03;;;-144.48;44.68
10688;BME280;5392;42.688;23.298;2022-09-12T05:22:30;57361.25;;;-144.48;42.40
10688;BME280;5392;42.688;23.298;2022-09-12T05:24:57;57338.28;;;-144.48;42.45
10688;BME280;5392;42.688;23.298;2022-09-12T05:27:24;57377.94;;;-144.48;40.91
10688;BME280;5392;42.688;23.298;2022-09-12T05:29:50;57363.31;;;-144.48;43.65
10688;BME280;5392;42.688;23.298;2022-09-12T05:32:17;57373.75;;;-144.48;43.29
10688;BME280;5392;42.688;23.298;2022-09-12T05:34:44;57338.28;;;-144.48;46.56
10688;BME280;5392;42.688;23.298;2022-09-12T05:37:10;57398.81;;;-144.48;49.96
10688;BME280;5392;42.688;23.298;2022-09-12T05:39:38;57392.56;;;-144.48;49.42
10688;BME280;5392;42.688;23.298;2022-09-12T05:42:04;57348.72;;;-144.48;45.60
10688;BME280;5392;42.688;23.298;2022-09-12T05:44:31;57350.81;;;-144.48;41.33
10688;BME280;5392;42.688;23.298;2022-09-12T05:46:58;57357.06;;;-144.48;40.96
10688;BME280;5392;42.688;23.298;2022-09-12T05:49:25;57361.25;;;-144.48;40.49
10688;BME280;5392;42.688;23.298;2022-09-12T05:51:52;57359.16;;;-144.48;38.94
10688;BME280;5392;42.688;23.298;2022-09-12T05:54:18;57336.19;;;-144.48;38.23
10688;BME280;5392;42.688;23.298;2022-09-12T05:56:46;57365.41;;;-144.48;37.24
10688;BME280;5392;42.688;23.298;2022-09-12T05:59:19;57350.81;;;-144.48;39.30
10688;BME280;5392;42.688;23.298;2022-09-12T06:01:46;57332.03;;;-144.48;38.38
10688;BME280;5392;42.688;23.298;2022-09-12T06:04:14;57375.84;;;-144.48;38.29
10688;BME280;5392;42.688;23.298;2022-09-12T06:06:42;57348.72;;;-144.48;37.66
10688;BME280;5392;42.688;23.298;2022-09-12T06:09:14;57375.84;;;-144.48;40.09
10688;BME280;5392;42.688;23.298;2022-09-12T06:11:41;57357.06;;;-144.48;44.17
10688;BME280;5392;42.688;23.298;2022-09-12T06:14:11;57388.38;;;-144.48;50.14
10688;BME280;5392;42.688;23.298;2022-09-12T06:16:38;57413.44;;;-144.48;49.13
10688;BME280;5392;42.688;23.298;2022-09-12T06:19:11;57409.25;;;-144.48;50.47
10688;BME280;5392;42.688;23.298;2022-09-12T06:21:38;57396.72;;;-144.48;52.80
10688;BME280;5392;42.688;23.298;2022-09-12T06:24:05;57403.00;;;-144.48;55.09
10688;BME280;5392;42.688;23.298;2022-09-12T06:26:33;57465.59;;;-144.48;60.30
10688;BME280;5392;42.688;23.298;2022-09-12T06:29:00;57367.50;;;-144.48;55.69
10688;BME280;5392;42.688;23.298;2022-09-12T06:31:32;57352.91;;;-144.48;51.08
10688;BME280;5392;42.688;23.298;2022-09-12T06:34:02;57421.78;;;-144.48;48.13
10688;BME280;5392;42.688;23.298;2022-09-12T06:36:32;57384.19;;;-144.48;50.69
10688;BME280;5392;42.688;23.298;2022-09-12T06:39:02;57398.81;;;-144.48;50.19
10688;BME280;5392;42.688;23.298;2022-09-12T06:41:31;57352.91;;;-144.48;46.54
10688;BME280;5392;42.688;23.298;2022-09-12T06:43:58;57377.94;;;-144.48;48.10
10688;BME280;5392;42.688;23.298;2022-09-12T06:46:26;57428.03;;;-144.48;51.78
10688;BME280;5392;42.688;23.298;2022-09-12T06:48:57;57425.94;;;-144.48;59.08
10688;BME280;5392;42.688;23.298;2022-09-12T06:51:26;57415.50;;;-144.48;60.81
10688;BME280;5392;42.688;23.298;2022-09-12T06:53:54;57411.34;;;-144.48;63.41
10688;BME280;5392;42.688;23.298;2022-09-12T06:56:24;57436.38;;;-144.48;61.15
10688;BME280;5392;42.688;23.298;2022-09-12T06:58:54;57409.25;;;-144.48;55.91
10688;BME280;5392;42.688;23.298;2022-09-12T07:01:29;57415.50;;;-144.48;51.21
10688;BME280;5392;42.688;23.298;2022-09-12T07:03:58;57425.94;;;-144.48;48.29
10688;BME280;5392;42.688;23.298;2022-09-12T07:06:27;57382.13;;;-144.48;45.11
10688;BME280;5392;42.688;23.298;2022-09-12T07:08:59;57409.25;;;-144.48;43.34
10688;BME280;5392;42.688;23.298;2022-09-12T07:11:31;57400.91;;;-144.48;42.84
10688;BME280;5392;42.688;23.298;2022-09-12T07:14:00;57377.94;;;-144.48;41.28
10688;BME280;5392;42.688;23.298;2022-09-12T07:16:28;57377.94;;;-144.48;43.18
10688;BME280;5392;42.688;23.298;2022-09-12T07:19:00;57371.69;;;-144.48;45.18
10688;BME280;5392;42.688;23.298;2022-09-12T07:21:28;57403.00;;;-144.48;48.84
10688;BME280;5392;42.688;23.298;2022-09-12T07:23:56;57430.13;;;-144.48;46.39
10688;BME280;5392;42.688;23.298;2022-09-12T07:26:25;57398.81;;;-144.48;46.27
10688;BME280;5392;42.688;23.298;2022-09-12T07:28:53;57390.47;;;-144.48;48.33
10688;BME280;5392;42.688;23.298;2022-09-12T07:31:41;57413.44;;;-144.48;45.65
10688;BME280;5392;42.688;23.298;2022-09-12T07:34:08;57425.94;;;-144.48;42.90
10688;BME280;5392;42.688;23.298;2022-09-12T07:36:36;57425.94;;;-144.48;40.33
10688;BME280;5392;42.688;23.298;2022-09-12T07:39:02;57403.00;;;-144.48;41.27
10688;BME280;5392;42.688;23.298;2022-09-12T07:41:30;57413.44;;;-144.48;41.57
10688;BME280;5392;42.688;23.298;2022-09-12T07:44:00;57384.19;;;-144.48;42.86
10688;BME280;5392;42.688;23.298;2022-09-12T07:46:28;57413.44;;;-144.48;45.26
10688;BME280;5392;42.688;23.298;2022-09-12T07:48:57;57405.06;;;-144.48;46.85
10688;BME280;5392;42.688;23.298;2022-09-12T07:51:26;57392.56;;;-144.48;45.61
10688;BME280;5392;42.688;23.298;2022-09-12T07:53:53;57392.56;;;-144.48;42.99
10688;BME280;5392;42.688;23.298;2022-09-12T07:56:22;57400.91;;;-144.48;46.34
10688;BME280;5392;42.688;23.298;2022-09-12T07:58:55;57398.81;;;-144.48;47.40
10688;BME280;5392;42.688;23.298;2022-09-12T08:01:22;57392.56;;;-144.48;48.23
10688;BME280;5392;42.688;23.298;2022-09-12T08:03:53;57430.13;;;-144.48;47.42
10688;BME280;5392;42.688;23.298;2022-09-12T08:06:21;57417.59;;;-144.48;45.83
10688;BME280;5392;42.688;23.298;2022-09-12T08:08:54;57388.38;;;-144.48;43.79
10688;BME280;5392;42.688;23.298;2022-09-12T08:11:21;57407.16;;;-144.48;43.84
10688;BME280;5392;42.688;23.298;2022-09-12T08:13:48;57425.94;;;-144.48;45.67
10688;BME280;5392;42.688;23.298;2022-09-12T08:16:23;57413.44;;;-144.48;45.49
10688;BME280;5392;42.688;23.298;2022-09-12T08:18:50;57419.69;;;-144.48;49.41
10688;BME280;5392;42.688;23.298;2022-09-12T08:21:22;57405.06;;;-144.48;47.68
10688;BME280;5392;42.688;23.298;2022-09-12T08:23:57;57419.69;;;-144.48;45.21
10688;BME280;5392;42.688;23.298;2022-09-12T08:26:24;57413.44;;;-144.48;43.59
10688;BME280;5392;42.688;23.298;2022-09-12T08:28:52;57409.25;;;-144.48;41.25
10688;BME280;5392;42.688;23.298;2022-09-12T08:31:20;57359.16;;;-144.48;39.84
10688;BME280;5392;42.688;23.298;2022-09-12T08:33:47;57396.72;;;-144.48;39.66
10688;BME280;5392;42.688;23.298;2022-09-12T08:36:22;57338.28;;;-144.48;39.22
10688;BME280;5392;42.688;23.298;2022-09-12T08:38:53;57388.38;;;-144.48;37.76
10688;BME280;5392;42.688;23.298;2022-09-12T08:41:31;57367.50;;;-144.48;36.26
10688;BME280;5392;42.688;23.298;2022-09-12T08:52:06;57359.16;;;-144.48;37.54
10688;BME280;5392;42.688;23.298;2022-09-12T08:54:38;57369.59;;;-144.48;36.61
10688;BME280;5392;42.688;23.298;2022-09-12T08:57:08;57375.84;;;-144.48;37.62
10688;BME280;5392;42.688;23.298;2022-09-12T08:59:40;57421.78;;;-144.48;40.83
10688;BME280;5392;42.688;23.298;2022-09-12T09:10:48;57438.47;;;-144.48;38.39
10688;BME280;5392;42.688;23.298;2022-09-12T09:13:48;57390.47;;;-144.48;39.93
10688;BME280;5392;42.688;23.298;2022-09-12T09:16:34;57403.00;;;-144.48;39.79
10688;BME280;5392;42.688;23.298;2022-09-12T09:19:05;57388.38;;;-144.48;41.71
10688;BME280;5392;42.688;23.298;2022-09-12T09:21:43;57400.91;;;-144.48;41.44
10688;BME280;5392;42.688;23.298;2022-09-12T09:24:16;57396.72;;;-144.48;42.82
10688;BME280;5392;42.688;23.298;2022-09-12T09:26:57;57444.72;;;-144.48;41.40
10688;BME280;5392;42.688;23.298;2022-09-12T09:29:32;57400.91;;;-144.48;41.82
10688;BME280;5392;42.688;23.298;2022-09-12T09:32:03;57407.16;;;-144.48;41.17
10688;BME280;5392;42.688;23.298;2022-09-12T09:34:37;57415.50;;;-144.48;41.75
10688;BME280;5392;42.688;23.298;2022-09-12T09:45:30;57388.38;;;-144.48;44.70
10688;BME280;5392;42.688;23.298;2022-09-12T09:48:02;57396.72;;;-144.48;41.69
10688;BME280;5392;42.688;23.298;2022-09-12T09:50:31;57398.81;;;-144.48;42.25
10688;BME280;5392;42.688;23.298;2022-09-12T09:52:59;57384.19;;;-144.48;40.90
10688;BME280;5392;42.688;23.298;2022-09-12T09:55:33;57398.81;;;-144.48;42.81
10688;BME280;5392;42.688;23.298;2022-09-12T09:58:03;57417.59;;;-144.48;43.29
10688;BME280;5392;42.688;23.298;2022-09-12T10:00:35;57398.81;;;-144.48;42.77
10688;BME280;5392;42.688;23.298;2022-09-12T10:05:47;57413.44;;;-144.48;42.23
10688;BME280;5392;42.688;23.298;2022-09-12T10:08:31;57413.44;;;-144.48;42.24
10688;BME280;5392;42.688;23.298;2022-09-12T10:11:16;57394.63;;;-144.48;43.39
10688;BME280;5392;42.688;23.298;2022-09-12T10:18:49;57419.69;;;-144.48;42.87
10688;BME280;5392;42.688;23.298;2022-09-12T10:24:01;57394.63;;;-144.48;43.04
10688;BME280;5392;42.688;23.298;2022-09-12T10:26:37;57394.63;;;-144.48;40.29
10688;BME280;5392;42.688;23.298;2022-09-12T10:29:12;57396.72;;;-144.48;40.76
10688;BME280;5392;42.688;23.298;2022-09-12T10:31:45;57375.84;;;-144.48;41.45
10688;BME280;5392;42.688;23.298;2022-09-12T10:34:44;57407.16;;;-144.48;40.80
10688;BME280;5392;42.688;23.298;2022-09-12T10:37:18;57392.56;;;-144.48;41.13
10688;BME280;5392;42.688;23.298;2022-09-12T10:39:54;57384.19;;;-144.48;39.68
10688;BME280;5392;42.688;23.298;2022-09-12T10:42:45;57409.25;;;-144.48;39.69
10688;BME280;5392;42.688;23.298;2022-09-12T10:45:20;57388.38;;;-144.48;39.00
10688;BME280;5392;42.688;23.298;2022-09-12T10:47:47;57405.06;;;-144.48;39.71
10688;BME280;5392;42.688;23.298;2022-09-12T10:50:29;57388.38;;;-144.48;40.84
10688;BME280;5392;42.688;23.298;2022-09-12T10:53:22;57417.59;;;-144.48;41.08
10688;BME280;5392;42.688;23.298;2022-09-12T10:56:03;57417.59;;;-144.48;42.39
10688;BME280;5392;42.688;23.298;2022-09-12T11:01:38;57436.38;;;-144.48;42.80
10688;BME280;5392;42.688;23.298;2022-09-12T11:09:48;57415.50;;;-144.48;43.44
10688;BME280;5392;42.688;23.298;2022-09-12T11:18:01;57390.47;;;-144.48;41.31
10688;BME280;5392;42.688;23.298;2022-09-12T11:21:00;57405.06;;;-144.48;41.21
10688;BME280;5392;42.688;23.298;2022-09-12T11:26:39;57411.34;;;-144.48;40.88
10688;BME280;5392;42.688;23.298;2022-09-12T11:29:32;57403.00;;;-144.48;41.26
10688;BME280;5392;42.688;23.298;2022-09-12T11:37:35;57430.13;;;-144.48;42.72
10688;BME280;5392;42.688;23.298;2022-09-12T11:40:24;57421.78;;;-144.48;43.11
10688;BME280;5392;42.688;23.298;2022-09-12T11:43:28;57403.00;;;-144.48;43.74
10688;BME280;5392;42.688;23.298;2022-09-12T11:46:05;57398.81;;;-144.48;43.97
10688;BME280;5392;42.688;23.298;2022-09-12T11:48:53;57434.28;;;-144.48;43.43
10688;BME280;5392;42.688;23.298;2022-09-12T11:54:32;57423.88;;;-144.48;45.10
10688;BME280;5392;42.688;23.298;2022-09-12T11:57:15;57463.53;;;-144.48;44.63
10688;BME280;5392;42.688;23.298;2022-09-12T11:59:48;57423.88;;;-144.48;45.27
10688;BME280;5392;42.688;23.298;2022-09-12T12:02:29;57405.06;;;-144.48;43.30
10688;BME280;5392;42.688;23.298;2022-09-12T12:05:19;57444.72;;;-144.48;44.22
10688;BME280;5392;42.688;23.298;2022-09-12T12:07:52;57367.50;;;-144.48;43.39
10688;BME280;5392;42.688;23.298;2022-09-12T12:10:23;57392.56;;;-144.48;42.84
10688;BME280;5392;42.688;23.298;2022-09-12T12:12:53;57400.91;;;-144.48;42.22
10688;BME280;5392;42.688;23.298;2022-09-12T12:15:21;57375.84;;;-144.48;42.66
10688;BME280;5392;42.688;23.298;2022-09-12T12:18:26;57442.66;;;-144.48;42.67
10688;BME280;5392;42.688;23.298;2022-09-12T12:20:55;57396.72;;;-144.48;41.16
10688;BME280;5392;42.688;23.298;2022-09-12T12:23:28;57407.16;;;-144.48;41.30
10688;BME280;5392;42.688;23.298;2022-09-12T12:25:59;57425.94;;;-144.48;43.34
10688;BME280;5392;42.688;23.298;2022-09-12T12:31:09;57400.91;;;-144.48;44.33
10688;BME280;5392;42.688;23.298;2022-09-12T12:36:07;57413.44;;;-144.48;46.45
10688;BME280;5392;42.688;23.298;2022-09-12T12:38:38;57405.06;;;-144.48;47.35
10688;BME280;5392;42.688;23.298;2022-09-12T12:43:49;57430.13;;;-144.48;46.42
10688;BME280;5392;42.688;23.298;2022-09-12T12:46:21;57400.91;;;-144.48;44.51
10688;BME280;5392;42.688;23.298;2022-09-12T12:49:06;57428.03;;;-144.48;45.95
10688;BME280;5392;42.688;23.298;2022-09-12T12:51:46;57373.75;;;-144.48;47.28
10688;BME280;5392;42.688;23.298;2022-09-12T12:59:50;57407.16;;;-144.48;48.68
10688;BME280;5392;42.688;23.298;2022-09-12T13:02:33;57409.25;;;-144.48;49.46
10688;BME280;5392;42.688;23.298;2022-09-12T13:05:05;57436.38;;;-144.48;52.28
10688;BME280;5392;42.688;23.298;2022-09-12T13:07:37;57394.63;;;-144.48;52.38
10688;BME280;5392;42.688;23.298;2022-09-12T13:10:06;57438.47;;;-144.48;52.27
10688;BME280;5392;42.688;23.298;2022-09-12T13:12:36;57430.13;;;-144.48;51.16
10688;BME280;5392;42.688;23.298;2022-09-12T13:15:46;57421.78;;;-144.48;51.16
10688;BME280;5392;42.688;23.298;2022-09-12T13:18:19;57432.22;;;-144.48;52.79
10688;BME280;5392;42.688;23.298;2022-09-12T13:20:54;57451.00;;;-144.48;52.49
10688;BME280;5392;42.688;23.298;2022-09-12T13:23:28;57392.56;;;-144.48;51.44
10688;BME280;5392;42.688;23.298;2022-09-12T13:25:57;57413.44;;;-144.48;51.06
10688;BME280;5392;42.688;23.298;2022-09-12T13:28:25;57403.00;;;-144.48;48.81
10688;BME280;5392;42.688;23.298;2022-09-12T13:33:48;57436.38;;;-144.48;45.91
10688;BME280;5392;42.688;23.298;2022-09-12T13:39:27;57398.81;;;-144.48;49.92
10688;BME280;5392;42.688;23.298;2022-09-12T13:44:45;57413.44;;;-144.48;49.78
10688;BME280;5392;42.688;23.298;2022-09-12T13:47:25;57407.16;;;-144.48;49.18
10688;BME280;5392;42.688;23.298;2022-09-12T13:49:54;57400.91;;;-144.48;50.30
10688;BME280;5392;42.688;23.298;2022-09-12T13:52:24;57403.00;;;-144.48;48.58
10688;BME280;5392;42.688;23.298;2022-09-12T13:54:54;57451.00;;;-144.48;49.06
10688;BME280;5392;42.688;23.298;2022-09-12T13:57:36;57392.56;;;-144.48;48.50
10688;BME280;5392;42.688;23.298;2022-09-12T14:00:09;57419.69;;;-144.48;47.86
10688;BME280;5392;42.688;23.298;2022-09-12T14:02:39;57430.13;;;-144.48;47.05
10688;BME280;5392;42.688;23.298;2022-09-12T14:05:20;57423.88;;;-144.48;46.87
10688;BME280;5392;42.688;23.298;2022-09-12T14:07:51;57438.47;;;-144.48;47.19
10688;BME280;5392;42.688;23.298;2022-09-12T14:10:33;57415.50;;;-144.48;47.16
10688;BME280;5392;42.688;23.298;2022-09-12T14:13:03;57392.56;;;-144.48;47.90
10688;BME280;5392;42.688;23.298;2022-09-12T14:15:32;57421.78;;;-144.48;47.13
10688;BME280;5392;42.688;23.298;2022-09-12T14:18:03;57417.59;;;-144.48;47.63
10688;BME280;5392;42.688;23.298;2022-09-12T14:20:35;57405.06;;;-144.48;47.03
10688;BME280;5392;42.688;23.298;2022-09-12T14:23:08;57400.91;;;-144.48;48.88
10688;BME280;5392;42.688;23.298;2022-09-12T14:25:42;57411.34;;;-144.48;48.56
10688;BME280;5392;42.688;23.298;2022-09-12T14:28:15;57453.09;;;-144.48;50.49
10688;BME280;5392;42.688;23.298;2022-09-12T14:31:02;57403.00;;;-144.48;50.60
10688;BME280;5392;42.688;23.298;2022-09-12T14:33:39;57386.28;;;-144.48;51.34
10688;BME280;5392;42.688;23.298;2022-09-12T14:38:50;57453.09;;;-144.48;51.09
10688;BME280;5392;42.688;23.298;2022-09-12T14:41:25;57421.78;;;-144.48;50.90
10688;BME280;5392;42.688;23.298;2022-09-12T14:43:56;57415.50;;;-144.48;51.01
10688;BME280;5392;42.688;23.298;2022-09-12T14:46:29;57440.56;;;-144.48;50.39
10688;BME280;5392;42.688;23.298;2022-09-12T14:49:47;57411.34;;;-144.48;50.00
10688;BME280;5392;42.688;23.298;2022-09-12T14:51:56;57444.72;;;-144.48;50.03
10688;BME280;5392;42.688;23.298;2022-09-12T14:56:57;57442.66;;;-144.48;51.50
10688;BME280;5392;42.688;23.298;2022-09-12T15:04:41;57396.72;;;-144.48;52.15
10688;BME280;5392;42.688;23.298;2022-09-12T15:12:39;57423.88;;;-144.48;54.28
10688;BME280;5392;42.688;23.298;2022-09-12T15:15:13;57405.06;;;-144.48;55.29
10688;BME280;5392;42.688;23.298;2022-09-12T15:17:41;57413.44;;;-144.48;55.29
10688;BME280;5392;42.688;23.298;2022-09-12T15:20:08;57411.34;;;-144.48;56.84
10688;BME280;5392;42.688;23.298;2022-09-12T15:22:37;57448.91;;;-144.48;57.09
10688;BME280;5392;42.688;23.298;2022-09-12T15:25:05;57446.81;;;-144.48;57.14
10688;BME280;5392;42.688;23.298;2022-09-12T15:27:32;57421.78;;;-144.48;57.29